Time;durP1;ratioP1;P1;durP2;ratioP2;P2;SDS_P1;SDS_P2;PMS_P1;PMS_P2;Temp;Humidity;BMP_temperature;BMP_pressure;BME280_temperature;BME280_humidity;BME280_pressure;Samples;Min_cycle;Max_cycle;Signal;HPM_P1;HPM_P2
2022/06/15 00:01:16;;;;;;;1.00;0.83;;;;;;;17.77;44.86;94843.38;2617346;47;20180;-78
2022/06/15 00:03:45;;;;;;;0.80;0.80;;;;;;;17.38;48.88;94744.97;2617445;47;20145;-77
2022/06/15 00:06:17;;;;;;;0.80;0.80;;;;;;;17.95;45.65;94843.53;2617514;54;20145;-78
2022/06/15 00:08:47;;;;;;;0.40;0.40;;;;;;;17.26;46.90;94777.06;2617575;47;20153;-78
2022/06/15 00:11:19;;;;;;;0.60;0.60;;;;;;;17.57;46.00;94846.78;2617351;47;20708;-78
2022/06/15 00:13:50;;;;;;;0.50;0.50;;;;;;;16.97;45.14;94752.47;2617591;54;20176;-78
2022/06/15 00:16:20;;;;;;;0.70;0.70;;;;;;;17.59;47.86;94829.63;2617406;47;20661;-77
2022/06/15 00:18:49;;;;;;;0.90;0.83;;;;;;;17.96;47.95;94850.69;2617282;54;20155;-77
2022/06/15 00:21:19;;;;;;;0.80;0.80;;;;;;;17.60;46.88;94801.72;2617191;47;20152;-77
2022/06/15 00:23:50;;;;;;;0.80;0.80;;;;;;;17.34;46.58;94793.63;2617286;47;20152;-77
2022/06/15 00:26:19;;;;;;;0.70;0.70;;;;;;;17.35;45.09;94815.81;2618122;54;20149;-77
2022/06/15 00:28:50;;;;;;;0.80;0.80;;;;;;;17.28;48.23;94782.09;2618190;39;20247;-77
2022/06/15 00:31:20;;;;;;;0.63;0.63;;;;;;;17.46;44.77;94833.09;2618211;54;20156;-77
2022/06/15 00:33:54;;;;;;;0.50;0.50;;;;;;;17.34;47.73;94794.34;2617877;54;20149;-77
2022/06/15 00:36:24;;;;;;;1.10;1.00;;;;;;;17.64;46.56;94836.84;2617747;54;20180;-77
2022/06/15 00:38:55;;;;;;;1.03;0.73;;;;;;;17.08;47.98;94741.88;2617875;47;20232;-77
2022/06/15 00:41:27;;;;;;;0.60;0.60;;;;;;;17.73;44.73;94818.31;2618184;47;20141;-77
2022/06/15 00:44:00;;;;;;;0.90;0.70;;;;;;;17.47;48.01;94808.75;2617757;47;20147;-77
2022/06/15 00:46:34;;;;;;;0.60;0.60;;;;;;;17.87;46.74;94834.16;2617905;47;20169;-77
2022/06/15 00:49:08;;;;;;;1.10;1.10;;;;;;;17.79;48.47;94794.69;2617693;47;20141;-77
2022/06/15 00:51:37;;;;;;;0.80;0.80;;;;;;;17.92;45.37;94830.59;2617864;54;20136;-77
2022/06/15 00:54:08;;;;;;;1.13;0.93;;;;;;;17.32;45.60;94800.03;2617722;54;20156;-77
2022/06/15 00:56:38;;;;;;;3.60;0.80;;;;;;;17.13;44.41;94783.41;2617866;47;20153;-76
2022/06/15 00:59:20;;;;;;;0.43;0.43;;;;;;;17.57;45.62;94835.34;2617696;47;20153;-77
2022/06/15 01:01:49;;;;;;;0.60;0.60;;;;;;;17.48;44.76;94842.41;2617864;47;20145;-76
2022/06/15 01:04:21;;;;;;;0.80;0.80;;;;;;;17.24;45.97;94820.00;2617782;54;20152;-76
2022/06/15 01:07:00;;;;;;;2.67;1.03;;;;;;;17.68;46.42;94836.16;2617810;54;20667;-77
2022/06/15 01:09:32;;;;;;;0.93;0.93;;;;;;;17.82;45.02;94842.00;2617834;54;20161;-76
2022/06/15 01:12:15;;;;;;;1.30;0.57;;;;;;;17.65;43.96;94829.69;2618124;39;20560;-78
2022/06/15 01:15:16;;;;;;;6.20;0.90;;;;;;;17.72;44.71;94833.34;2617769;47;20156;-76
2022/06/15 01:18:03;;;;;;;1.00;0.93;;;;;;;17.68;47.01;94824.69;2618149;39;20555;-76
2022/06/15 01:20:49;;;;;;;1.10;1.10;;;;;;;17.61;43.69;94851.84;2617739;47;21031;-76
2022/06/15 01:23:54;;;;;;;0.50;0.50;;;;;;;17.39;45.07;94832.28;2617410;54;20152;-76
2022/06/15 01:26:56;;;;;;;0.70;0.70;;;;;;;17.46;47.82;94848.13;2617174;47;20149;-76
2022/06/15 01:29:53;;;;;;;1.03;1.00;;;;;;;17.64;47.63;94833.25;2617187;54;20157;-77
2022/06/15 01:32:30;;;;;;;0.90;0.90;;;;;;;18.07;45.55;94848.63;2617729;54;20192;-77
2022/06/15 01:35:03;;;;;;;1.53;0.80;;;;;;;17.41;45.31;94790.09;2618382;47;20148;-77
2022/06/15 01:37:39;;;;;;;0.70;0.70;;;;;;;17.96;45.50;94858.56;2618585;54;20200;-77
2022/06/15 01:40:16;;;;;;;0.70;0.70;;;;;;;17.89;44.22;94837.78;2618582;47;20664;-84
2022/06/15 01:42:50;;;;;;;1.23;0.80;;;;;;;17.66;45.06;94834.00;2618840;47;20152;-84
2022/06/15 01:45:22;;;;;;;1.37;0.90;;;;;;;17.76;45.25;94853.44;2618912;47;20141;-76
2022/06/15 01:47:55;;;;;;;3.13;1.17;;;;;;;17.38;43.78;94810.81;2618434;54;20152;-77
2022/06/15 01:50:27;;;;;;;0.80;0.80;;;;;;;17.63;43.90;94835.41;2618419;54;20145;-77
2022/06/15 01:53:02;;;;;;;0.90;0.90;;;;;;;18.06;44.08;94856.50;2618449;47;20145;-76
2022/06/15 01:55:36;;;;;;;0.90;0.90;;;;;;;17.85;44.85;94842.75;2618300;54;20149;-76
2022/06/15 01:58:08;;;;;;;0.63;0.63;;;;;;;17.45;45.87;94825.91;2618411;47;20164;-77
2022/06/15 02:00:38;;;;;;;1.17;1.17;;;;;;;17.45;47.15;94792.28;2618453;54;20696;-76
2022/06/15 02:03:18;;;;;;;2.83;1.27;;;;;;;17.69;48.46;94811.81;2618466;54;20173;-77
2022/06/15 02:05:54;;;;;;;0.70;0.70;;;;;;;17.40;45.01;94787.94;2618397;47;20152;-77
2022/06/15 02:08:32;;;;;;;0.90;0.90;;;;;;;18.01;48.00;94860.78;2618283;47;20984;-76
2022/06/15 02:11:07;;;;;;;3.43;1.07;;;;;;;18.27;45.35;94857.38;2618574;54;20161;-85
2022/06/15 02:13:46;;;;;;;0.73;0.73;;;;;;;18.23;48.01;94860.19;2618584;47;20191;-84
2022/06/15 02:16:20;;;;;;;1.60;1.10;;;;;;;17.81;45.44;94791.13;2618740;39;20565;-77
2022/06/15 02:18:53;;;;;;;4.10;0.70;;;;;;;17.37;45.11;94800.78;2618208;54;20154;-76
2022/06/15 02:21:24;;;;;;;0.80;0.80;;;;;;;17.90;44.70;94852.81;2618593;54;20164;-76
2022/06/15 02:23:58;;;;;;;0.97;0.97;;;;;;;17.05;44.65;94779.03;2618764;39;20312;-77
2022/06/15 02:26:28;;;;;;;3.90;0.87;;;;;;;17.49;46.31;94843.84;2618490;54;20181;-76
2022/06/15 02:29:02;;;;;;;0.70;0.70;;;;;;;17.54;45.50;94859.63;2618359;47;20165;-77
2022/06/15 02:31:31;;;;;;;0.80;0.80;;;;;;;17.54;46.76;94856.06;2618605;54;20160;-84
2022/06/15 02:34:05;;;;;;;0.60;0.60;;;;;;;17.69;47.16;94860.50;2618657;54;20164;-84
2022/06/15 02:36:34;;;;;;;0.70;0.70;;;;;;;17.48;43.27;94830.25;2618441;47;20151;-77
2022/06/15 02:39:04;;;;;;;0.57;0.50;;;;;;;17.44;44.98;94807.28;2618359;54;20141;-78
2022/06/15 02:41:32;;;;;;;1.27;1.20;;;;;;;17.81;44.54;94837.69;2618794;39;20605;-77
2022/06/15 02:44:03;;;;;;;1.10;1.10;;;;;;;17.47;46.78;94789.44;2618552;54;20156;-77
2022/06/15 02:46:36;;;;;;;0.57;0.57;;;;;;;17.98;46.16;94850.72;2618348;47;20152;-86
2022/06/15 02:49:08;;;;;;;0.77;0.77;;;;;;;17.99;43.41;94849.31;2619008;39;20582;-86
2022/06/15 02:51:44;;;;;;;1.10;1.03;;;;;;;17.91;44.85;94859.97;2618974;39;20531;-78
2022/06/15 02:54:22;;;;;;;0.70;0.70;;;;;;;17.92;44.58;94858.53;2618288;47;20149;-77
2022/06/15 02:56:52;;;;;;;0.70;0.70;;;;;;;17.08;44.24;94787.66;2618411;47;20145;-78
2022/06/15 02:59:22;;;;;;;0.60;0.60;;;;;;;17.93;47.45;94857.84;2618280;47;20152;-78
2022/06/15 03:01:51;;;;;;;0.50;0.50;;;;;;;17.74;43.76;94842.66;2618446;47;20156;-85
2022/06/15 03:04:22;;;;;;;0.80;0.80;;;;;;;18.14;49.14;94863.72;2618488;47;20227;-84
2022/06/15 03:06:51;;;;;;;0.87;0.80;;;;;;;18.19;47.56;94851.56;2618335;47;20153;-77
2022/06/15 03:09:20;;;;;;;1.73;1.63;;;;;;;18.10;43.96;94850.09;2617997;47;20145;-77
2022/06/15 03:11:49;;;;;;;0.57;0.57;;;;;;;18.08;44.35;94847.19;2618063;47;20152;-77
2022/06/15 03:14:17;;;;;;;0.57;0.57;;;;;;;17.81;43.49;94852.00;2618444;47;20703;-77
2022/06/15 03:16:49;;;;;;;0.80;0.80;;;;;;;17.68;45.57;94828.28;2618078;54;20169;-77
2022/06/15 03:19:18;;;;;;;0.50;0.50;;;;;;;17.49;44.78;94851.72;2618224;54;20149;-77
2022/06/15 03:21:49;;;;;;;0.57;0.57;;;;;;;16.96;43.81;94774.66;2618342;54;20141;-85
2022/06/15 03:24:18;;;;;;;0.60;0.60;;;;;;;17.60;46.39;94847.53;2617798;47;20152;-85
2022/06/15 03:26:46;;;;;;;0.50;0.50;;;;;;;17.46;44.10;94847.41;2617742;47;20163;-77
2022/06/15 03:29:15;;;;;;;1.57;0.47;;;;;;;17.50;46.36;94851.00;2617356;54;20183;-77
2022/06/15 03:31:44;;;;;;;0.30;0.30;;;;;;;17.36;44.17;94842.28;2596905;54;20152;-77
2022/06/15 03:34:12;;;;;;;0.50;0.50;;;;;;;17.35;45.31;94855.19;2617485;54;20173;-77
2022/06/15 03:36:41;;;;;;;0.83;0.83;;;;;;;17.62;46.67;94853.28;2617612;47;20145;-77
2022/06/15 03:39:12;;;;;;;0.50;0.50;;;;;;;17.22;46.01;94810.69;2617701;46;20189;-77
2022/06/15 03:41:41;;;;;;;0.67;0.67;;;;;;;17.44;44.48;94856.69;2618252;54;20157;-85
2022/06/15 03:44:21;;;;;;;2.28;0.88;;;;;;;17.34;44.62;94845.88;2617391;47;20398;-85
2022/06/15 03:46:50;;;;;;;0.90;0.90;;;;;;;17.39;46.75;94835.88;2617568;47;20148;-78
2022/06/15 03:49:19;;;;;;;0.80;0.80;;;;;;;17.42;45.11;94842.34;2617428;47;20152;-77
2022/06/15 03:51:48;;;;;;;0.93;0.93;;;;;;;17.69;45.45;94861.25;2617574;47;20156;-77
2022/06/15 03:54:20;;;;;;;0.70;0.70;;;;;;;17.53;44.45;94843.88;2617237;54;20145;-77
2022/06/15 03:56:50;;;;;;;0.93;0.87;;;;;;;17.93;47.84;94865.72;2617195;47;20139;-77
2022/06/15 03:59:19;;;;;;;0.80;0.80;;;;;;;17.71;45.85;94849.06;2617275;54;20157;-77
2022/06/15 04:01:47;;;;;;;0.77;0.77;;;;;;;17.53;45.91;94812.38;2617604;54;20149;-84
2022/06/15 04:04:16;;;;;;;0.83;0.73;;;;;;;17.75;45.77;94855.56;2617642;54;20155;-85
2022/06/15 04:06:46;;;;;;;1.00;1.00;;;;;;;17.91;45.87;94839.91;2617444;54;20155;-77
2022/06/15 04:09:12;;;;;;;1.50;0.87;;;;;;;18.23;44.56;94868.06;2617435;46;20187;-78
2022/06/15 04:14:24;;;;;;;1.10;1.10;;;;;;;18.11;44.70;94863.72;2617349;47;20148;-77
2022/06/15 04:16:56;;;;;;;1.00;1.00;;;;;;;18.23;46.08;94865.94;2617313;47;20149;-83
2022/06/15 04:19:26;;;;;;;0.90;0.90;;;;;;;18.26;44.73;94870.25;2617495;54;20187;-84
2022/06/15 04:21:55;;;;;;;1.17;0.80;;;;;;;18.23;43.82;94862.34;2617262;47;20157;-77
2022/06/15 04:24:25;;;;;;;0.80;0.80;;;;;;;18.39;45.64;94851.69;2617371;47;20153;-77
2022/06/15 04:26:58;;;;;;;1.23;1.23;;;;;;;18.08;45.98;94812.81;2617741;39;20208;-76
2022/06/15 04:29:27;;;;;;;0.90;0.90;;;;;;;17.89;43.92;94786.19;2617861;54;20144;-77
2022/06/15 04:31:56;;;;;;;0.83;0.83;;;;;;;18.29;44.74;94837.31;2617400;54;20665;-77
2022/06/15 04:34:25;;;;;;;0.63;0.63;;;;;;;18.47;44.56;94868.94;2617478;54;20157;-77
2022/06/15 04:36:53;;;;;;;0.80;0.77;;;;;;;18.76;47.00;94869.84;2617646;47;20152;-77
2022/06/15 04:39:24;;;;;;;0.50;0.50;;;;;;;18.29;42.54;94828.00;2616533;54;20153;-77
2022/06/15 04:42:00;;;;;;;0.70;0.70;;;;;;;18.36;43.72;94835.19;2617038;54;20144;-78
2022/06/15 04:44:29;;;;;;;1.17;1.08;;;;;;;18.50;43.49;94858.22;2616190;54;20388;-77
2022/06/15 04:46:58;;;;;;;2.03;1.30;;;;;;;18.04;43.70;94832.84;2617119;54;20156;-78
2022/06/15 04:49:26;;;;;;;1.60;1.33;;;;;;;18.32;44.32;94870.28;2617820;54;20156;-78
2022/06/15 04:51:55;;;;;;;8.57;0.80;;;;;;;18.27;43.71;94868.84;2617163;47;20153;-78
2022/06/15 04:54:24;;;;;;;1.23;0.57;;;;;;;18.24;43.99;94858.78;2617277;47;20153;-78
2022/06/15 04:56:53;;;;;;;0.77;0.77;;;;;;;17.76;43.65;94790.41;2617315;54;20699;-78
2022/06/15 04:59:24;;;;;;;0.77;0.77;;;;;;;18.22;45.72;94784.22;2618044;39;20555;-79
2022/06/15 05:01:53;;;;;;;1.07;1.03;;;;;;;19.12;44.40;94883.63;2617754;39;20541;-76
2022/06/15 05:04:21;;;;;;;1.53;0.90;;;;;;;18.90;42.26;94879.94;2616959;47;20187;-78
2022/06/15 05:06:50;;;;;;;1.03;1.03;;;;;;;18.13;42.66;94831.47;2616801;54;20317;-78
2022/06/15 05:09:19;;;;;;;1.83;1.20;;;;;;;18.56;43.91;94846.06;2616794;54;20149;-76
2022/06/15 05:11:48;;;;;;;1.30;1.30;;;;;;;18.91;44.46;94878.50;2617464;54;20168;-76
2022/06/15 05:14:17;;;;;;;1.37;1.33;;;;;;;19.12;43.71;94862.81;2618775;39;20907;-78
2022/06/15 05:16:49;;;;;;;1.00;1.00;;;;;;;19.02;43.59;94836.91;2618311;54;20653;-83
2022/06/15 05:19:18;;;;;;;1.00;1.00;;;;;;;19.04;44.63;94843.41;2618185;54;20141;-83
2022/06/15 05:21:51;;;;;;;0.90;0.90;;;;;;;19.37;41.84;94846.34;2618068;47;20145;-77
2022/06/15 05:24:19;;;;;;;4.03;1.20;;;;;;;19.53;41.69;94846.41;2618184;47;20148;-77
2022/06/15 05:26:48;;;;;;;0.70;0.70;;;;;;;19.00;41.38;94816.81;2618104;47;20153;-77
2022/06/15 05:29:17;;;;;;;0.90;0.90;;;;;;;19.29;41.81;94847.03;2618202;54;20156;-76
2022/06/15 05:31:48;;;;;;;1.33;1.23;;;;;;;19.78;41.97;94902.47;2617525;54;20924;-77
2022/06/15 05:34:17;;;;;;;0.90;0.90;;;;;;;20.11;43.26;94896.72;2618111;47;20149;-78
2022/06/15 05:36:47;;;;;;;1.48;0.82;;;;;;;20.05;42.69;94908.22;2618100;54;20172;-77
2022/06/15 05:39:15;;;;;;;1.83;1.13;;;;;;;19.78;42.30;94898.88;2618239;54;20179;-77
2022/06/15 05:45:01;;;;;;;1.27;0.83;;;;;;;18.22;42.48;94665.97;2618404;39;20556;-77
2022/06/15 05:47:34;;;;;;;0.98;0.98;;;;;;;20.21;42.56;94911.81;2618077;54;20149;-77
2022/06/15 05:50:03;;;;;;;1.33;1.33;;;;;;;20.15;41.16;94865.09;2617965;47;20153;-78
2022/06/15 05:52:31;;;;;;;0.90;0.90;;;;;;;20.43;42.04;94911.09;2617983;47;20149;-78
2022/06/15 05:55:01;;;;;;;0.87;0.87;;;;;;;20.00;41.30;94903.91;2618201;54;20144;-83
2022/06/15 05:57:30;;;;;;;2.17;0.80;;;;;;;19.54;40.95;94865.09;2617887;47;20663;-84
2022/06/15 06:00:00;;;;;;;1.70;1.13;;;;;;;19.12;40.75;94837.69;2617953;54;20137;-78
2022/06/15 06:02:30;;;;;;;3.93;1.90;;;;;;;19.20;42.47;94882.91;2617138;54;20152;-77
2022/06/15 06:05:02;;;;;;;0.57;0.57;;;;;;;18.73;42.34;94827.50;2617730;47;20172;-83
2022/06/15 06:07:31;;;;;;;0.93;0.93;;;;;;;19.50;43.49;94890.94;2617714;47;20232;-83
2022/06/15 06:10:00;;;;;;;0.50;0.50;;;;;;;19.22;40.98;94854.22;2617838;47;20667;-83
2022/06/15 06:12:29;;;;;;;3.53;0.87;;;;;;;19.60;41.59;94885.19;2617667;47;20685;-84
2022/06/15 06:14:58;;;;;;;0.70;0.70;;;;;;;19.65;41.59;94888.81;2617964;47;20147;-79
2022/06/15 06:17:27;;;;;;;0.50;0.50;;;;;;;20.29;40.91;94919.00;2617785;54;20156;-78
2022/06/15 06:19:57;;;;;;;0.40;0.40;;;;;;;19.70;42.27;94882.31;2618349;39;20531;-79
2022/06/15 06:22:29;;;;;;;1.17;1.17;;;;;;;20.11;42.04;94914.69;2618482;54;20156;-78
2022/06/15 06:25:01;;;;;;;0.70;0.70;;;;;;;19.71;42.52;94920.41;2618070;46;20273;-85
2022/06/15 06:27:30;;;;;;;1.53;0.80;;;;;;;20.34;43.44;94949.22;2617721;47;20141;-84
2022/06/15 06:29:59;;;;;;;1.00;1.00;;;;;;;20.47;42.37;94942.75;2617857;54;20145;-78
2022/06/15 06:32:28;;;;;;;0.90;0.90;;;;;;;20.35;41.95;94936.28;2617907;47;20153;-78
2022/06/15 06:34:58;;;;;;;0.73;0.73;;;;;;;20.22;42.64;94932.69;2617954;47;20148;-78
2022/06/15 06:37:32;;;;;;;0.90;0.90;;;;;;;20.33;42.95;94896.72;2617974;54;20153;-78
2022/06/15 06:40:01;;;;;;;0.70;0.70;;;;;;;19.92;40.97;94872.28;2617949;54;20156;-84
2022/06/15 06:42:30;;;;;;;0.90;0.90;;;;;;;20.39;42.59;94921.88;2618337;54;20145;-85
2022/06/15 06:45:00;;;;;;;1.60;0.73;;;;;;;20.36;42.69;94929.81;2618056;54;20156;-85
2022/06/15 07:04:46;;;;;;;0.97;0.97;;;;;;;18.14;42.96;94675.28;2616481;46;20146;-85
2022/06/15 07:08:14;;;;;;;1.43;1.43;;;;;;;18.74;42.19;94639.56;2617643;47;20673;-84
2022/06/15 07:11:02;;;;;;;1.30;1.00;;;;;;;19.85;43.23;94742.94;2617510;46;20185;-84
2022/06/15 07:13:49;;;;;;;4.30;1.30;;;;;;;21.21;41.65;94935.38;2617534;54;20176;-84
2022/06/15 07:19:37;;;;;;;;;;;;;;;;;;;;;
2022/06/15 07:22:49;;;;;;;0.80;0.80;;;;;;;20.04;40.97;94668.88;2617675;46;20161;-84
2022/06/15 07:25:41;;;;;;;1.33;1.10;;;;;;;20.61;41.25;94697.41;2615103;54;20381;-77
2022/06/15 07:31:31;;;;;;;3.33;1.27;;;;;;;22.18;41.60;94893.03;2616218;47;20156;-84
2022/06/15 07:34:24;;;;;;;0.80;0.80;;;;;;;21.28;40.29;94806.47;2619176;39;20204;-84
2022/06/15 07:40:34;;;;;;;2.50;0.93;;;;;;;21.66;40.76;94937.34;2617587;46;20256;-84
2022/06/15 07:46:24;;;;;;;0.90;0.90;;;;;;;20.28;40.44;94696.09;2617408;47;20280;-83
2022/06/15 07:52:22;;;;;;;1.30;1.20;;;;;;;22.23;39.76;94940.59;2617685;46;20148;-78
2022/06/15 07:55:33;;;;;;;0.98;0.85;;;;;;;22.09;41.64;94935.66;2617567;47;20140;-78
2022/06/15 07:58:32;;;;;;;0.70;0.70;;;;;;;20.20;40.42;94694.00;2617377;47;20148;-78
2022/06/15 08:01:27;;;;;;;1.13;1.13;;;;;;;21.07;39.79;94754.00;2617651;47;20145;-84
2022/06/15 08:04:22;;;;;;;0.73;0.73;;;;;;;21.98;38.99;94799.44;2617706;54;20229;-84
2022/06/15 08:10:45;;;;;;;0.68;0.68;;;;;;;21.20;39.59;94715.06;2617362;39;20561;-84
2022/06/15 08:13:21;;;;;;;0.68;0.68;;;;;;;22.39;39.06;94939.75;2617413;47;20184;-84
2022/06/15 08:18:59;;;;;;;0.82;0.82;;;;;;;20.94;38.94;94815.97;2616138;47;20165;-84
2022/06/15 08:22:21;;;;;;;0.80;0.80;;;;;;;22.25;38.88;94940.59;2617786;54;20176;-84
2022/06/15 08:25:24;;;;;;;1.40;1.13;;;;;;;20.68;38.04;94698.09;2616774;47;20388;-84
2022/06/15 08:28:29;;;;;;;0.70;0.70;;;;;;;22.01;38.59;94946.53;2617319;54;20156;-83
2022/06/15 08:31:57;;;;;;;;;;;;;;;;;;;;;
2022/06/15 08:37:39;;;;;;;1.38;1.05;;;;;;;20.43;39.59;94698.22;2617433;47;20149;-84
2022/06/15 08:40:29;;;;;;;1.08;1.08;;;;;;;21.44;39.83;94814.28;2617714;47;20684;-84
2022/06/15 08:50:00;;;;;;;0.90;0.90;;;;;;;20.94;38.74;94775.66;2618019;46;20141;-79
2022/06/15 08:53:06;;;;;;;0.70;0.70;;;;;;;21.99;38.71;94901.13;2617900;47;20153;-84
2022/06/15 09:12:58;;;;;;;2.47;1.23;;;;;;;21.32;34.91;94670.34;2616274;46;20168;-83
2022/06/15 09:23:06;;;;;;;1.00;1.00;;;;;;;22.14;34.63;94726.47;2616180;47;20157;-84
2022/06/15 09:35:16;;;;;;;0.68;0.68;;;;;;;22.34;35.25;94815.72;2614973;47;20157;-85
2022/06/15 10:07:38;;;;;;;1.58;0.80;;;;;;;21.96;36.22;94703.59;2615257;47;20153;-81
2022/06/15 11:41:09;;;;;;;1.17;0.82;;;;;;;23.56;32.27;94677.63;2620642;46;20140;-83
2022/06/15 11:43:59;;;;;;;0.70;0.70;;;;;;;23.87;31.11;94701.66;2621484;54;20721;-84
2022/06/15 11:46:58;;;;;;;0.90;0.90;;;;;;;23.58;31.87;94634.97;2622242;54;20153;-79
2022/06/15 12:00:00;;;;;;;0.93;0.88;;;;;;;26.60;32.56;94876.97;2620896;47;20842;-79
2022/06/15 12:19:46;;;;;;;0.82;0.75;;;;;;;25.40;33.15;94775.34;2616850;47;20132;-82
2022/06/15 12:32:32;;;;;;;1.33;1.23;;;;;;;25.90;33.49;94780.72;2617086;39;20545;-83
2022/06/15 12:35:28;;;;;;;1.00;1.00;;;;;;;26.49;34.82;94838.06;2615809;47;20188;-85
2022/06/15 12:51:32;;;;;;;2.28;1.27;;;;;;;25.79;35.16;94730.94;2616814;47;20172;-85
2022/06/15 12:54:42;;;;;;;2.88;1.30;;;;;;;26.86;34.00;94858.13;2618636;39;20567;-85
2022/06/15 12:57:57;;;;;;;0.82;0.82;;;;;;;26.27;34.21;94797.94;2617261;46;20156;-79
2022/06/15 13:01:26;;;;;;;1.00;1.00;;;;;;;25.94;33.74;94749.44;2618478;39;20259;-79
2022/06/15 13:04:28;;;;;;;1.52;1.42;;;;;;;25.99;33.93;94736.22;2617802;47;20648;-79
2022/06/15 13:11:25;;;;;;;1.15;1.10;;;;;;;24.78;33.67;94594.91;2616785;46;20192;-85
2022/06/15 13:14:35;;;;;;;2.55;1.20;;;;;;;25.11;34.25;94621.69;2616870;54;20153;-84
2022/06/15 13:20:57;;;;;;;1.50;1.40;;;;;;;24.57;36.08;94585.97;2616256;47;20173;-85
2022/06/15 13:29:55;;;;;;;1.40;1.40;;;;;;;26.01;36.04;94779.72;2617763;47;20199;-85
2022/06/15 13:40:07;;;;;;;1.98;1.88;;;;;;;25.57;35.21;94661.84;2615011;46;20307;-83
2022/06/15 13:50:15;;;;;;;1.52;1.42;;;;;;;25.72;33.88;94663.66;2614036;46;20198;-79
2022/06/15 13:53:19;;;;;;;2.67;1.38;;;;;;;26.90;36.38;94832.56;2614683;47;20168;-79
2022/06/15 13:59:59;;;;;;;1.88;1.58;;;;;;;26.83;35.62;94825.50;2614913;47;20279;-82
2022/06/15 14:03:14;;;;;;;1.83;1.73;;;;;;;26.01;36.54;94723.84;2616183;54;20160;-76
2022/06/15 15:54:06;;;;;;;;;;;;;;;;;;;;;
2022/06/15 16:12:50;;;;;;;3.22;2.20;;;;;;;25.75;40.29;94751.34;2617208;47;20164;-83
2022/06/15 16:15:19;;;;;;;1.70;1.70;;;;;;;25.90;39.56;94793.06;2617045;54;20187;-82
2022/06/15 16:25:16;;;;;;;1.30;1.30;;;;;;;23.48;41.35;94554.19;2614329;47;20164;-84
2022/06/15 16:27:57;;;;;;;2.10;2.00;;;;;;;24.09;42.34;94752.63;2616687;47;20296;-87
2022/06/15 16:30:27;;;;;;;1.65;1.45;;;;;;;23.44;42.61;94663.38;2618078;54;20239;-85
2022/06/15 16:33:07;;;;;;;2.08;1.98;;;;;;;22.77;43.64;94616.03;2618378;54;20157;-87
2022/06/15 16:36:18;;;;;;;1.75;1.65;;;;;;;22.32;45.22;94561.09;2618645;54;20153;-88
2022/06/15 16:39:02;;;;;;;1.45;1.42;;;;;;;23.43;43.75;94688.66;2617635;47;20700;-87
2022/06/15 16:41:49;;;;;;;1.38;1.38;;;;;;;24.08;42.39;94769.25;2618068;46;20157;-87
2022/06/15 16:44:43;;;;;;;1.63;1.50;;;;;;;22.37;43.04;94619.47;2617822;54;20235;-87
2022/06/15 16:47:37;;;;;;;2.22;2.05;;;;;;;22.17;43.40;94568.53;2617890;54;20657;-86
2022/06/15 16:53:14;;;;;;;2.13;2.00;;;;;;;24.38;44.06;94819.41;2617736;54;20160;-84
2022/06/15 16:56:17;;;;;;;2.00;1.90;;;;;;;22.61;43.80;94581.59;2617949;54;20404;-79
2022/06/15 16:59:10;;;;;;;2.60;1.85;;;;;;;23.30;44.46;94711.25;2618052;39;20585;-84
2022/06/15 17:01:47;;;;;;;1.85;1.42;;;;;;;23.03;44.95;94719.63;2616831;47;20172;-87
2022/06/15 17:04:19;;;;;;;1.80;1.65;;;;;;;23.23;46.29;94764.13;2618417;46;20168;-86
2022/06/15 17:06:53;;;;;;;1.60;1.60;;;;;;;21.96;46.36;94632.22;2618004;54;20275;-86
2022/06/15 17:09:25;;;;;;;1.85;1.75;;;;;;;23.01;47.21;94831.56;2618046;54;20160;-85
2022/06/15 17:11:58;;;;;;;1.88;1.77;;;;;;;22.38;46.31;94716.13;2618036;39;20551;-86
2022/06/15 17:14:29;;;;;;;2.65;1.90;;;;;;;22.25;47.22;94744.41;2617696;54;20152;-87
2022/06/15 17:17:01;;;;;;;4.00;1.95;;;;;;;22.24;46.99;94699.69;2617524;46;20172;-79
2022/06/15 17:19:30;;;;;;;1.88;1.77;;;;;;;22.07;46.54;94710.69;2617938;47;20202;-80
2022/06/15 17:21:59;;;;;;;2.00;1.90;;;;;;;22.00;46.43;94700.69;2619790;54;20161;-86
2022/06/15 17:24:29;;;;;;;2.75;1.88;;;;;;;21.63;46.28;94593.66;2620278;47;20153;-86
2022/06/15 17:26:58;;;;;;;1.63;1.52;;;;;;;22.12;47.72;94628.44;2618479;39;20574;-79
2022/06/15 17:29:29;;;;;;;1.83;1.73;;;;;;;23.28;45.68;94800.88;2618332;54;20153;-79
2022/06/15 17:32:04;;;;;;;2.53;2.00;;;;;;;21.36;47.10;94622.03;2615538;54;20156;-86
2022/06/15 17:34:34;;;;;;;1.67;1.58;;;;;;;21.98;47.41;94720.88;2618452;47;20161;-85
2022/06/15 17:40:10;;;;;;;1.92;1.83;;;;;;;21.66;49.13;94744.94;2617782;47;20163;-86
2022/06/15 17:42:55;;;;;;;1.75;1.65;;;;;;;22.75;49.34;94852.06;2618843;39;20547;-87
2022/06/15 17:45:32;;;;;;;2.15;1.90;;;;;;;21.43;49.50;94720.66;2618125;54;20145;-88
2022/06/15 17:48:06;;;;;;;2.40;1.70;;;;;;;21.70;51.78;94853.75;2618875;47;20206;-87
2022/06/15 17:50:38;;;;;;;2.63;2.17;;;;;;;19.36;53.41;94589.31;2618165;54;20721;-80
2022/06/15 17:53:08;;;;;;;2.70;2.20;;;;;;;21.37;53.57;94864.75;2618188;54;20152;-80
2022/06/15 17:55:40;;;;;;;2.40;2.20;;;;;;;20.93;52.82;94797.25;2617796;54;20145;-87
2022/06/15 17:58:10;;;;;;;2.40;2.20;;;;;;;19.40;52.54;94609.44;2618444;47;20164;-87
2022/06/15 18:00:39;;;;;;;2.20;2.10;;;;;;;20.28;53.08;94736.38;2618612;54;20176;-87
2022/06/15 18:03:13;;;;;;;2.42;2.28;;;;;;;20.49;51.72;94757.91;2619409;47;20183;-86
2022/06/15 18:05:42;;;;;;;4.53;2.03;;;;;;;20.46;51.24;94691.03;2618714;54;20159;-87
2022/06/15 18:08:33;;;;;;;1.85;1.75;;;;;;;20.49;49.96;94655.06;2618665;54;20176;-89
2022/06/15 18:11:29;;;;;;;1.85;1.75;;;;;;;20.61;50.89;94624.78;2618275;54;20145;-86
2022/06/15 18:14:06;;;;;;;1.70;1.60;;;;;;;22.46;49.85;94892.06;2618040;54;20173;-86
2022/06/15 18:16:40;;;;;;;3.20;2.08;;;;;;;21.05;48.96;94661.84;2617587;54;20244;-80
2022/06/15 18:19:22;;;;;;;4.20;1.92;;;;;;;21.65;48.79;94711.81;2617566;47;20259;-79
2022/06/15 18:21:55;;;;;;;2.08;1.67;;;;;;;22.13;49.87;94753.91;2618625;54;20156;-87
2022/06/15 18:24:28;;;;;;;2.70;1.90;;;;;;;22.33;48.29;94739.25;2618647;54;20699;-87
2022/06/15 18:26:57;;;;;;;2.03;1.92;;;;;;;22.14;48.42;94748.84;2617711;47;20164;-79
2022/06/15 18:29:27;;;;;;;3.50;2.28;;;;;;;22.21;48.42;94758.88;2617642;54;20177;-79
2022/06/15 18:32:05;;;;;;;4.57;3.70;;;;;;;21.58;50.57;94719.81;2617346;47;20164;-79
2022/06/15 18:34:44;;;;;;;2.35;2.15;;;;;;;21.21;51.77;94684.81;2617951;39;20588;-79
2022/06/15 18:37:18;;;;;;;2.40;2.30;;;;;;;22.05;50.69;94779.22;2619135;54;20244;-87
2022/06/15 18:40:00;;;;;;;2.38;2.25;;;;;;;21.71;49.35;94723.28;2618819;54;20206;-87
2022/06/15 18:42:32;;;;;;;1.90;1.80;;;;;;;22.63;48.04;94755.50;2617874;54;20151;-80
2022/06/15 18:47:54;;;;;;;2.42;1.98;;;;;;;21.40;48.71;94725.72;2617865;47;20141;-80
2022/06/15 18:50:53;;;;;;;4.30;3.90;;;;;;;20.46;53.01;94681.69;2617269;47;20634;-79
2022/06/15 18:53:41;;;;;;;1.80;1.70;;;;;;;22.20;50.86;94887.25;2616650;54;20156;-80
2022/06/15 18:56:31;;;;;;;2.87;2.67;;;;;;;21.70;51.82;94808.34;2617414;54;20404;-81
2022/06/15 19:00:01;;;;;;;;;;;;;;;;;;;;;
2022/06/15 19:03:01;;;;;;;3.78;2.40;;;;;;;19.63;53.38;94633.09;2617203;47;20164;-88
2022/06/15 19:05:39;;;;;;;2.10;1.95;;;;;;;19.14;56.86;94751.53;2617403;47;20160;-81
2022/06/15 19:08:17;;;;;;;2.67;2.47;;;;;;;19.88;58.57;94908.22;2617091;54;20928;-81
2022/06/15 19:10:57;;;;;;;2.25;2.13;;;;;;;19.54;57.65;94796.16;2616788;54;20156;-80
2022/06/15 19:16:47;;;;;;;2.25;2.05;;;;;;;18.90;58.98;94765.16;2617596;47;20180;-87
2022/06/15 19:19:48;;;;;;;3.30;2.78;;;;;;;20.44;58.11;94924.06;2616680;47;20168;-85
2022/06/15 19:23:23;;;;;;;7.70;4.18;;;;;;;19.70;56.95;94678.31;2617137;47;20164;-80
2022/06/15 19:36:27;;;;;;;;;;;;;;;;;;;;;
2022/06/15 19:39:39;;;;;;;1.80;1.70;;;;;;;20.70;55.96;94928.31;2615935;54;20171;-81
2022/06/15 19:42:49;;;;;;;2.63;2.42;;;;;;;20.28;57.48;94921.16;2615815;47;20185;-86
2022/06/15 19:48:51;;;;;;;2.83;2.60;;;;;;;18.93;60.33;94876.38;2616676;46;20415;-80
2022/06/15 19:57:43;;;;;;;2.07;1.97;;;;;;;18.75;60.26;94853.31;2616228;46;20172;-85
2022/06/15 20:04:28;;;;;;;2.73;2.03;;;;;;;18.06;64.03;94881.56;2617776;39;20573;-80
2022/06/15 20:13:43;;;;;;;2.87;2.67;;;;;;;19.69;61.06;94829.16;2615747;46;20409;-78
2022/06/15 20:30:46;;;;;;;4.33;2.40;;;;;;;18.25;61.71;94773.50;2615311;47;20168;-80
2022/06/15 20:37:00;;;;;;;2.43;2.23;;;;;;;17.85;59.72;94654.38;2613384;46;20173;-80